KPNC/PNC METAR and TAF weather

Enter ICAO airport designator
Station Type Date Time Source
KPNC METAR 2022/05/16 10:53 UTC NOAA

KPNC 161053Z AUTO 04005KT 10SM CLR 14/12 A3004 RMK AO2 SLP162 T01440122


Station Type Date Time Source
KPNC Decoded METAR 2022/05/16 10:53 UTC NOAA

PONCA CITY MUNICIPAL AIRPORT, OK, United States (KPNC) 36-44N 97-06W 308M
May 16, 2022 - 06:53 AM EDT / 2022.05.16 1053 UTC
Wind: from the NE (040 degrees) at 6 MPH (5 KT):0
Visibility: 10 mile(s):0
Sky conditions: clear
Temperature: 57.9 F (14.4 C)
Dew Point: 54.0 F (12.2 C)
Relative Humidity: 86%
Pressure (altimeter): 30.04 in. Hg (1017 hPa)
ob: KPNC 161053Z AUTO 04005KT 10SM CLR 14/12 A3004 RMK AO2 SLP162 T01440122
cycle: 11

Station Type Date Time Source
KPNC TAF 2022/05/23 12:22 UTC NOAA

TAF KPNC 231120Z 2312/2412 08009KT P6SM BKN035
FM231500 11009KT P6SM OVC020 PROB30 2321/2402 4SM -TSRA BKN007 OVC020CB
FM240300 09010KT 4SM SHRA OVC008
TEMPO 2406/2410 2SM TSRA OVC009CB
AMD NOT SKED

Example: see airport list